createdAt,value
2022-11-09T00:00:08.715Z,11.50
2022-11-09T00:02:38.207Z,11.70
2022-11-09T00:05:07.993Z,12.30
2022-11-09T00:07:34.859Z,12.30
2022-11-09T00:10:01.867Z,10.60
2022-11-09T00:12:28.894Z,11.20
2022-11-09T00:14:55.801Z,11.47
2022-11-09T00:17:22.811Z,11.60
2022-11-09T00:19:49.695Z,11.10
2022-11-09T00:22:16.547Z,11.43
2022-11-09T00:24:43.486Z,10.40
2022-11-09T00:27:12.888Z,12.17
2022-11-09T00:29:42.123Z,10.17
2022-11-09T00:32:09.097Z,9.93
2022-11-09T00:34:36.239Z,10.17
2022-11-09T00:37:03.425Z,10.70
2022-11-09T00:39:30.294Z,11.00
2022-11-09T00:41:57.167Z,10.73
2022-11-09T00:44:24.086Z,10.60
2022-11-09T00:46:50.984Z,10.53
2022-11-09T00:49:18.994Z,9.73
2022-11-09T00:51:45.833Z,9.97
2022-11-09T00:54:12.789Z,10.53
2022-11-09T00:56:39.703Z,10.27
2022-11-09T00:59:06.640Z,10.70
2022-11-09T01:01:34.213Z,9.23
2022-11-09T01:04:01.098Z,9.90
2022-11-09T01:06:28.178Z,9.30
2022-11-09T01:08:55.438Z,9.07
2022-11-09T01:11:23.386Z,10.03
2022-11-09T01:13:50.285Z,8.90
2022-11-09T01:16:21.433Z,9.93
2022-11-09T01:18:48.686Z,9.43
2022-11-09T01:21:15.925Z,9.77
2022-11-09T01:23:43.013Z,9.93
2022-11-09T01:26:13.465Z,9.73
2022-11-09T01:28:41.181Z,10.50
2022-11-09T01:31:20.194Z,9.60
2022-11-09T01:33:47.730Z,9.73
2022-11-09T01:36:21.678Z,9.30
2022-11-09T01:38:48.880Z,9.70
2022-11-09T01:41:23.837Z,9.67
2022-11-09T01:44:17.382Z,10.13
2022-11-09T01:46:55.550Z,10.90
2022-11-09T01:49:48.915Z,10.53
2022-11-09T01:52:32.913Z,9.00
2022-11-09T01:55:17.379Z,10.00
2022-11-09T01:58:08.880Z,9.67
2022-11-09T02:00:38.966Z,9.60
2022-11-09T02:03:17.608Z,9.30
2022-11-09T02:05:45.250Z,8.97
2022-11-09T02:08:17.542Z,9.40
2022-11-09T02:11:10.957Z,9.73
2022-11-09T02:13:46.934Z,9.60
2022-11-09T02:16:15.065Z,10.07
2022-11-09T02:18:56.799Z,9.47
2022-11-09T02:21:27.474Z,9.67
2022-11-09T02:23:54.378Z,8.90
2022-11-09T02:26:43.129Z,9.60
2022-11-09T02:29:14.997Z,9.63
2022-11-09T02:31:48.815Z,9.30
2022-11-09T02:34:21.012Z,9.10
2022-11-09T02:36:48.342Z,9.60
2022-11-09T02:39:19.868Z,8.87
2022-11-09T02:42:13.736Z,8.30
2022-11-09T02:44:53.290Z,8.53
2022-11-09T02:47:20.166Z,8.50
2022-11-09T02:49:47.146Z,9.90
2022-11-09T02:52:14.022Z,8.67
2022-11-09T02:54:40.897Z,8.60
2022-11-09T02:57:07.906Z,8.43
2022-11-09T02:59:35.528Z,8.17
2022-11-09T03:02:02.404Z,8.63
2022-11-09T03:04:29.246Z,9.23
2022-11-09T03:06:56.281Z,8.20
2022-11-09T03:09:23.334Z,10.03
2022-11-09T03:11:50.563Z,10.30
2022-11-09T03:14:17.582Z,8.90
2022-11-09T03:16:49.999Z,9.60
2022-11-09T03:19:17.607Z,8.97
2022-11-09T03:21:44.460Z,9.90
2022-11-09T03:24:11.470Z,8.77
2022-11-09T03:26:38.349Z,9.67
2022-11-09T03:29:05.216Z,9.90
2022-11-09T03:31:32.130Z,8.77
2022-11-09T03:33:58.972Z,9.80
2022-11-09T03:36:25.897Z,8.73
2022-11-09T03:38:52.827Z,9.70
2022-11-09T03:41:19.718Z,11.13
2022-11-09T03:43:46.680Z,10.00
2022-11-09T03:46:13.550Z,10.80
2022-11-09T03:48:40.446Z,10.33
2022-11-09T03:51:07.377Z,10.10
2022-11-09T03:53:34.326Z,9.30
2022-11-09T03:56:01.260Z,9.70
2022-11-09T03:58:28.102Z,9.80
2022-11-09T04:00:55.005Z,9.40
2022-11-09T04:03:22.242Z,9.80
2022-11-09T04:05:49.292Z,9.53
2022-11-09T04:08:16.191Z,9.50
2022-11-09T04:10:43.145Z,8.97
2022-11-09T04:13:09.985Z,9.50
2022-11-09T04:15:36.937Z,10.50
2022-11-09T04:18:04.097Z,10.17
2022-11-09T04:20:32.490Z,9.07
2022-11-09T04:23:03.407Z,10.20
2022-11-09T04:25:34.854Z,9.67
2022-11-09T04:28:03.899Z,9.40
2022-11-09T04:30:33.598Z,9.57
2022-11-09T04:33:01.670Z,9.97
2022-11-09T04:35:30.356Z,9.13
2022-11-09T04:38:00.848Z,9.40
2022-11-09T04:40:30.394Z,8.67
2022-11-09T04:43:00.972Z,10.13
2022-11-09T04:45:27.918Z,9.70
2022-11-09T04:48:06.654Z,9.47
2022-11-09T04:50:34.688Z,9.43
2022-11-09T04:53:13.512Z,9.83
2022-11-09T04:55:41.351Z,9.60
2022-11-09T04:58:08.973Z,8.93
2022-11-09T05:00:36.590Z,9.73
2022-11-09T05:03:05.636Z,8.83
2022-11-09T05:05:37.879Z,9.37
2022-11-09T05:08:05.853Z,9.60
2022-11-09T05:10:33.391Z,9.20
2022-11-09T05:13:10.120Z,9.00
2022-11-09T05:15:37.558Z,10.23
2022-11-09T05:18:05.700Z,10.50
2022-11-09T05:20:32.791Z,8.63
2022-11-09T05:23:19.450Z,10.33
2022-11-09T05:25:47.389Z,9.30
2022-11-09T05:28:14.530Z,9.23
2022-11-09T05:30:41.660Z,10.10
2022-11-09T05:33:08.742Z,9.40
2022-11-09T05:35:35.653Z,9.20
2022-11-09T05:38:02.552Z,9.57
2022-11-09T05:40:29.514Z,9.43
2022-11-09T05:42:56.702Z,9.87
2022-11-09T05:45:42.112Z,9.00
2022-11-09T05:48:12.381Z,9.97
2022-11-09T05:50:41.144Z,14.47
2022-11-09T05:53:08.279Z,12.20
2022-11-09T05:55:35.294Z,11.53
2022-11-09T05:58:02.297Z,11.13
2022-11-09T06:00:29.218Z,11.53
2022-11-09T06:03:07.472Z,10.50
2022-11-09T06:05:35.765Z,10.40
2022-11-09T06:08:09.335Z,10.27
2022-11-09T06:10:36.225Z,10.50
2022-11-09T06:13:03.898Z,11.73
2022-11-09T06:15:31.042Z,12.80
2022-11-09T06:17:58.899Z,10.97
2022-11-09T06:20:27.911Z,11.30
2022-11-09T06:23:02.486Z,10.93
2022-11-09T06:25:32.610Z,11.23
2022-11-09T06:27:59.596Z,13.27
2022-11-09T06:30:26.636Z,11.10
2022-11-09T06:33:02.601Z,13.13
2022-11-09T06:35:29.807Z,10.97
2022-11-09T06:38:00.579Z,12.30
2022-11-09T06:40:27.805Z,10.80
2022-11-09T06:42:58.817Z,11.10
2022-11-09T06:45:27.446Z,12.50
2022-11-09T06:47:58.949Z,13.50
2022-11-09T06:50:28.238Z,11.70
2022-11-09T06:53:04.803Z,12.00
2022-11-09T06:55:33.928Z,10.90
2022-11-09T06:58:05.693Z,12.60
2022-11-09T07:00:33.006Z,10.80
2022-11-09T07:02:59.997Z,11.37
2022-11-09T07:05:26.937Z,11.20
2022-11-09T07:07:53.868Z,10.87
2022-11-09T07:10:20.823Z,11.00
2022-11-09T07:12:48.033Z,12.17
2022-11-09T07:15:14.913Z,11.60
2022-11-09T07:17:42.121Z,11.20
2022-11-09T07:20:10.733Z,12.10
2022-11-09T07:22:40.293Z,11.40
2022-11-09T07:25:09.017Z,13.60
2022-11-09T07:27:36.594Z,12.93
2022-11-09T07:30:04.407Z,13.00
2022-11-09T07:33:06.952Z,14.50
2022-11-09T07:35:22.802Z,13.20
2022-11-09T07:37:49.700Z,12.90
2022-11-09T07:40:16.590Z,12.57
2022-11-09T07:42:43.489Z,12.20
2022-11-09T07:45:10.683Z,12.17
2022-11-09T07:47:37.662Z,11.27
2022-11-09T07:50:05.235Z,10.93
2022-11-09T07:52:32.150Z,10.63
2022-11-09T07:54:59.116Z,11.83
2022-11-09T07:57:25.996Z,10.93
2022-11-09T07:59:53.608Z,12.60
2022-11-09T08:02:20.660Z,12.60
2022-11-09T08:04:47.591Z,12.40
2022-11-09T08:07:14.887Z,11.33
2022-11-09T08:09:41.934Z,12.27
2022-11-09T08:12:08.803Z,11.90
2022-11-09T08:14:35.677Z,13.07
2022-11-09T08:17:02.545Z,12.63
2022-11-09T08:19:29.602Z,11.23
2022-11-09T08:21:57.806Z,11.90
2022-11-09T08:24:24.773Z,11.20
2022-11-09T08:26:51.690Z,10.57
2022-11-09T08:29:18.606Z,11.37
2022-11-09T08:31:45.567Z,10.90
2022-11-09T08:34:16.631Z,10.93
2022-11-09T08:36:43.537Z,11.63
2022-11-09T08:39:10.506Z,9.87
2022-11-09T08:41:37.812Z,10.77
2022-11-09T08:44:04.802Z,10.07
2022-11-09T08:46:31.694Z,10.80
2022-11-09T08:48:58.717Z,11.03
2022-11-09T08:51:25.638Z,14.33
2022-11-09T08:53:52.568Z,16.73
2022-11-09T08:56:19.436Z,14.20
2022-11-09T08:58:46.413Z,12.80
2022-11-09T09:01:16.919Z,11.97
2022-11-09T09:03:44.636Z,12.90
2022-11-09T09:06:11.534Z,12.20
2022-11-09T09:08:38.442Z,13.00
2022-11-09T09:11:06.365Z,13.93
2022-11-09T09:13:36.665Z,12.77
2022-11-09T09:16:11.884Z,13.77
2022-11-09T09:18:38.801Z,13.57
2022-11-09T09:21:08.654Z,13.13
2022-11-09T09:23:36.129Z,14.53
2022-11-09T09:26:03.056Z,13.10
2022-11-09T09:28:30.030Z,12.80
2022-11-09T09:31:01.030Z,12.63
2022-11-09T09:33:28.562Z,12.53
2022-11-09T09:35:57.613Z,12.53
2022-11-09T09:38:25.647Z,12.30
2022-11-09T09:41:02.621Z,12.60
2022-11-09T09:43:44.001Z,12.97
2022-11-09T09:46:48.832Z,13.17
2022-11-09T09:49:31.172Z,13.67
2022-11-09T09:52:26.106Z,11.40
2022-11-09T09:55:19.129Z,10.87
2022-11-09T09:57:55.579Z,12.53
2022-11-09T10:00:26.279Z,12.20
2022-11-09T10:02:54.214Z,12.53
2022-11-09T10:05:29.684Z,11.63
2022-11-09T10:08:03.802Z,10.73
2022-11-09T10:10:46.208Z,11.63
2022-11-09T10:13:57.369Z,11.17
2022-11-09T10:16:35.371Z,11.60
2022-11-09T10:19:45.720Z,10.60
2022-11-09T10:22:26.469Z,12.70
2022-11-09T10:25:37.559Z,11.90
2022-11-09T10:28:15.236Z,12.37
2022-11-09T10:30:42.642Z,14.73
2022-11-09T10:33:16.777Z,14.43
2022-11-09T10:36:09.710Z,16.67
2022-11-09T10:38:46.136Z,16.33
2022-11-09T10:41:40.173Z,14.93
2022-11-09T10:44:18.648Z,14.23
2022-11-09T10:47:11.225Z,14.77
2022-11-09T10:49:39.665Z,13.40
2022-11-09T10:52:30.410Z,14.63
2022-11-09T10:55:29.413Z,15.80
2022-11-09T10:58:14.765Z,69.10
2022-11-09T11:01:24.616Z,32.33
2022-11-09T11:03:56.033Z,16.43
2022-11-09T11:06:22.793Z,15.17
2022-11-09T11:09:12.655Z,15.30
2022-11-09T11:11:40.294Z,15.67
2022-11-09T11:14:22.853Z,15.50
2022-11-09T11:16:52.706Z,15.37
2022-11-09T11:19:37.420Z,17.93
2022-11-09T11:22:18.983Z,15.60
2022-11-09T11:25:15.970Z,16.23
2022-11-09T11:27:58.714Z,16.13
2022-11-09T11:30:37.405Z,16.27
2022-11-09T11:33:16.190Z,15.10
2022-11-09T11:35:54.769Z,14.53
2022-11-09T11:38:30.261Z,15.27
2022-11-09T11:41:34.515Z,14.57
2022-11-09T11:44:34.149Z,16.57
2022-11-09T11:47:25.913Z,17.37
2022-11-09T11:50:15.837Z,15.93
2022-11-09T11:53:02.868Z,15.10
2022-11-09T11:55:50.942Z,14.13
2022-11-09T11:58:46.623Z,14.53
2022-11-09T12:01:41.940Z,16.83
2022-11-09T12:05:00.657Z,14.47
2022-11-09T12:07:59.335Z,14.93
2022-11-09T12:11:10.285Z,14.60
2022-11-09T12:13:52.997Z,14.93
2022-11-09T12:16:31.663Z,13.57
2022-11-09T12:19:36.017Z,13.10
2022-11-09T12:22:33.006Z,14.60
2022-11-09T12:25:26.367Z,15.57
2022-11-09T12:28:05.554Z,15.10
2022-11-09T12:31:06.000Z,15.83
2022-11-09T12:33:46.948Z,14.83
2022-11-09T12:36:40.757Z,15.90
2022-11-09T12:39:28.037Z,16.37
2022-11-09T12:42:03.464Z,16.33
2022-11-09T12:45:04.102Z,15.23
2022-11-09T12:47:39.841Z,15.73
2022-11-09T12:50:14.828Z,16.17
2022-11-09T12:52:44.911Z,15.20
2022-11-09T12:55:32.682Z,15.30
2022-11-09T12:58:01.091Z,15.90
2022-11-09T13:00:49.617Z,14.60
2022-11-09T13:03:23.531Z,15.67
2022-11-09T13:06:27.854Z,14.90
2022-11-09T13:09:07.535Z,15.50
2022-11-09T13:11:41.996Z,15.83
2022-11-09T13:14:29.097Z,15.80
2022-11-09T13:16:59.311Z,16.40
2022-11-09T13:19:35.284Z,16.13
2022-11-09T13:22:25.853Z,14.70
2022-11-09T13:25:01.958Z,15.87
2022-11-09T13:27:43.329Z,16.97
2022-11-09T13:30:25.514Z,16.20
2022-11-09T13:33:09.403Z,16.53
2022-11-09T13:35:42.374Z,15.43
2022-11-09T13:38:23.288Z,13.10
2022-11-09T13:40:53.694Z,15.43
2022-11-09T13:43:29.149Z,13.27
2022-11-09T13:46:05.008Z,14.50
2022-11-09T13:48:40.199Z,16.20
2022-11-09T13:51:10.342Z,16.90
2022-11-09T13:53:37.100Z,17.30
2022-11-09T13:56:32.874Z,19.30
2022-11-09T13:59:16.492Z,19.03
2022-11-09T14:01:53.708Z,20.70
2022-11-09T14:04:36.475Z,19.93
2022-11-09T14:07:26.237Z,18.00
2022-11-09T14:09:59.021Z,17.87
2022-11-09T14:12:54.380Z,17.10
2022-11-09T14:15:39.677Z,17.87
2022-11-09T14:18:21.763Z,17.27
2022-11-09T14:21:13.484Z,15.60
2022-11-09T14:23:40.418Z,16.20
2022-11-09T14:26:25.135Z,17.10
2022-11-09T14:28:52.086Z,18.00
2022-11-09T14:31:30.853Z,20.63
2022-11-09T14:34:04.699Z,20.57
2022-11-09T14:36:35.055Z,19.30
2022-11-09T14:39:05.846Z,19.70
2022-11-09T14:41:33.312Z,20.10
2022-11-09T14:44:00.899Z,19.37
2022-11-09T14:46:30.645Z,20.53
2022-11-09T14:49:01.212Z,20.03
2022-11-09T14:51:39.304Z,20.70
2022-11-09T14:54:11.485Z,20.33
2022-11-09T14:56:39.543Z,20.70
2022-11-09T14:59:08.819Z,20.47
2022-11-09T15:01:35.783Z,20.10
2022-11-09T15:04:11.850Z,22.27
2022-11-09T15:06:49.803Z,23.20
2022-11-09T15:09:32.657Z,23.93
2022-11-09T15:11:59.669Z,21.70
2022-11-09T15:14:33.905Z,22.73
2022-11-09T15:17:37.351Z,21.60
2022-11-09T15:20:30.682Z,22.80
2022-11-09T15:23:15.088Z,23.50
2022-11-09T15:25:41.832Z,23.47
2022-11-09T15:28:08.580Z,24.70
2022-11-09T15:30:41.952Z,22.23
2022-11-09T15:33:18.955Z,26.20
2022-11-09T15:36:25.986Z,28.23
2022-11-09T15:39:09.061Z,29.40
2022-11-09T15:41:37.409Z,27.93
2022-11-09T15:44:05.919Z,29.90
2022-11-09T15:46:37.539Z,29.37
2022-11-09T15:49:28.706Z,31.53
2022-11-09T15:51:56.343Z,41.53
2022-11-09T15:54:24.288Z,50.10
2022-11-09T15:56:51.936Z,40.27
2022-11-09T15:59:26.080Z,35.30
2022-11-09T16:01:53.295Z,31.13
2022-11-09T16:04:20.204Z,30.70
2022-11-09T16:06:47.312Z,30.50
2022-11-09T16:09:15.385Z,29.87
2022-11-09T16:11:42.228Z,28.87
2022-11-09T16:14:09.210Z,28.00
2022-11-09T16:16:36.114Z,29.10
2022-11-09T16:19:03.086Z,29.50
2022-11-09T16:21:29.990Z,30.53
2022-11-09T16:23:58.615Z,30.20
2022-11-09T16:26:25.968Z,31.83
2022-11-09T16:28:54.894Z,29.97
2022-11-09T16:31:40.939Z,30.13
2022-11-09T16:34:08.608Z,30.70
2022-11-09T16:36:37.240Z,31.77
2022-11-09T16:39:09.343Z,30.40
2022-11-09T16:41:40.862Z,32.00
2022-11-09T16:44:07.750Z,32.90
2022-11-09T16:46:35.289Z,34.40
2022-11-09T16:49:03.481Z,32.77
2022-11-09T16:51:30.945Z,33.30
2022-11-09T16:53:57.872Z,33.70
2022-11-09T16:56:24.928Z,35.80
2022-11-09T16:58:52.178Z,33.20
2022-11-09T17:01:23.252Z,34.73
2022-11-09T17:03:50.690Z,35.63
2022-11-09T17:06:17.875Z,34.63
2022-11-09T17:08:44.794Z,33.93
2022-11-09T17:11:16.043Z,36.97
2022-11-09T17:13:43.262Z,34.20
2022-11-09T17:16:13.336Z,31.50
2022-11-09T17:18:42.079Z,29.83
2022-11-09T17:21:11.179Z,30.20
2022-11-09T17:23:38.879Z,31.63
2022-11-09T17:26:08.585Z,33.60
2022-11-09T17:28:41.525Z,32.43
2022-11-09T17:31:22.610Z,31.17
2022-11-09T17:33:49.875Z,31.13
2022-11-09T17:36:35.098Z,29.60
2022-11-09T17:39:08.899Z,29.57
2022-11-09T17:41:41.419Z,31.33
2022-11-09T17:44:09.614Z,29.80
2022-11-09T17:46:36.618Z,29.53
2022-11-09T17:49:09.642Z,27.70
2022-11-09T17:51:37.397Z,29.20
2022-11-09T17:54:04.712Z,28.87
2022-11-09T17:56:33.693Z,28.70
2022-11-09T17:59:00.682Z,32.80
2022-11-09T18:01:27.609Z,35.50
2022-11-09T18:03:54.483Z,36.47
2022-11-09T18:06:24.048Z,38.23
2022-11-09T18:09:19.330Z,38.80
2022-11-09T18:11:38.192Z,39.43
2022-11-09T18:14:05.158Z,39.67
2022-11-09T18:16:32.018Z,37.43
2022-11-09T18:19:01.510Z,38.40
2022-11-09T18:21:28.771Z,40.23
2022-11-09T18:23:56.022Z,38.17
2022-11-09T18:26:23.204Z,39.13
2022-11-09T18:28:51.404Z,37.20
2022-11-09T18:31:18.382Z,36.70
2022-11-09T18:33:45.251Z,36.43
2022-11-09T18:36:15.602Z,37.17
2022-11-09T18:38:44.219Z,35.27
2022-11-09T18:41:15.543Z,35.73
2022-11-09T18:43:42.687Z,36.90
2022-11-09T18:46:12.825Z,37.27
2022-11-09T18:48:39.766Z,35.30
2022-11-09T18:51:08.557Z,34.90
2022-11-09T18:53:39.808Z,37.13
2022-11-09T18:56:21.688Z,34.30
2022-11-09T18:58:52.930Z,37.80
2022-11-09T19:01:22.997Z,35.37
2022-11-09T19:03:52.977Z,36.90
2022-11-09T19:06:24.446Z,39.77
2022-11-09T19:09:09.914Z,39.07
2022-11-09T19:11:39.048Z,40.57
2022-11-09T19:14:06.080Z,43.13
2022-11-09T19:16:32.938Z,44.33
2022-11-09T19:18:59.921Z,45.67
2022-11-09T19:21:41.564Z,43.37
2022-11-09T19:24:12.301Z,42.00
2022-11-09T19:26:39.634Z,41.80
2022-11-09T19:29:07.712Z,41.80
2022-11-09T19:31:35.485Z,42.20
2022-11-09T19:34:02.943Z,41.93
2022-11-09T19:36:31.568Z,37.90
2022-11-09T19:38:58.880Z,39.10
2022-11-09T19:41:25.946Z,40.30
2022-11-09T19:43:55.911Z,37.80
2022-11-09T19:46:23.191Z,35.70
2022-11-09T19:48:50.268Z,35.50
2022-11-09T19:51:18.395Z,37.60
2022-11-09T19:53:56.785Z,36.00
2022-11-09T19:56:26.359Z,35.07
2022-11-09T19:59:00.799Z,35.17
2022-11-09T20:01:28.338Z,35.00
2022-11-09T20:03:57.745Z,34.20
2022-11-09T20:06:25.270Z,36.40
2022-11-09T20:08:53.752Z,36.60
2022-11-09T20:11:41.746Z,36.70
2022-11-09T20:14:10.415Z,35.20
2022-11-09T20:16:38.972Z,37.70
2022-11-09T20:19:09.394Z,39.13
2022-11-09T20:21:37.091Z,36.07
2022-11-09T20:24:04.505Z,36.27
2022-11-09T20:26:31.576Z,41.00
2022-11-09T20:28:58.565Z,35.10
2022-11-09T20:31:25.406Z,36.00
2022-11-09T20:33:52.734Z,36.47
2022-11-09T20:36:19.712Z,36.57
2022-11-09T20:38:47.417Z,34.40
2022-11-09T20:41:14.875Z,34.90
2022-11-09T20:43:42.035Z,34.10
2022-11-09T20:46:22.246Z,34.40
2022-11-09T20:48:54.885Z,33.97
2022-11-09T20:51:24.118Z,33.00
2022-11-09T20:53:51.188Z,31.87
2022-11-09T20:56:19.763Z,28.00
2022-11-09T20:58:47.241Z,29.37
2022-11-09T21:01:16.855Z,29.37
2022-11-09T21:03:44.398Z,32.47
2022-11-09T21:06:12.953Z,32.37
2022-11-09T21:08:40.297Z,32.53
2022-11-09T21:11:09.360Z,32.77
2022-11-09T21:13:36.295Z,30.23
2022-11-09T21:16:08.983Z,29.53
2022-11-09T21:18:35.873Z,31.70
2022-11-09T21:21:09.007Z,31.93
2022-11-09T21:23:56.182Z,31.20
2022-11-09T21:26:41.954Z,31.47
2022-11-09T21:29:32.037Z,30.57
2022-11-09T21:31:59.619Z,31.20
2022-11-09T21:34:31.446Z,29.70
2022-11-09T21:37:00.941Z,30.47
2022-11-09T21:39:27.893Z,30.83
2022-11-09T21:41:54.726Z,27.90
2022-11-09T21:44:21.882Z,28.67
2022-11-09T21:46:48.777Z,29.53
2022-11-09T21:49:15.672Z,31.20
2022-11-09T21:51:42.540Z,39.97
2022-11-09T21:54:10.600Z,77.93
2022-11-09T21:56:38.060Z,41.23
2022-11-09T21:59:05.222Z,35.30
2022-11-09T22:01:32.389Z,29.63
2022-11-09T22:03:59.499Z,28.37
2022-11-09T22:06:27.035Z,28.30
2022-11-09T22:08:54.013Z,28.50
2022-11-09T22:11:43.461Z,30.20
2022-11-09T22:14:35.996Z,27.70
2022-11-09T22:17:06.024Z,26.87
2022-11-09T22:19:51.279Z,26.40
2022-11-09T22:22:18.260Z,28.03
2022-11-09T22:24:45.592Z,27.87
2022-11-09T22:27:12.557Z,27.10
2022-11-09T22:29:39.564Z,27.93
2022-11-09T22:32:07.286Z,27.40
2022-11-09T22:34:34.173Z,27.40
2022-11-09T22:37:01.140Z,29.73
2022-11-09T22:39:27.984Z,29.37
2022-11-09T22:41:54.891Z,29.10
2022-11-09T22:44:21.895Z,27.73
2022-11-09T22:46:49.243Z,27.53
2022-11-09T22:49:18.138Z,29.30
2022-11-09T22:51:45.189Z,29.50
2022-11-09T22:54:12.141Z,30.43
2022-11-09T22:56:39.053Z,28.50
2022-11-09T22:59:06.132Z,27.90
2022-11-09T23:01:33.119Z,29.60
2022-11-09T23:04:00.009Z,30.27
2022-11-09T23:06:27.035Z,27.73
2022-11-09T23:08:53.921Z,26.93
2022-11-09T23:11:22.857Z,27.33
2022-11-09T23:13:55.099Z,26.80
2022-11-09T23:16:23.207Z,28.90
2022-11-09T23:18:56.469Z,27.10
2022-11-09T23:21:34.790Z,28.03
2022-11-09T23:24:07.312Z,26.97
2022-11-09T23:26:34.772Z,29.00
2022-11-09T23:29:01.962Z,24.97
2022-11-09T23:31:28.979Z,25.43
2022-11-09T23:33:57.775Z,26.53
2022-11-09T23:36:26.567Z,26.57
2022-11-09T23:38:54.077Z,27.83
2022-11-09T23:41:21.407Z,27.23
2022-11-09T23:43:49.907Z,26.77
2022-11-09T23:46:18.115Z,25.53
2022-11-09T23:48:45.507Z,26.10
2022-11-09T23:51:12.715Z,24.93
2022-11-09T23:53:39.895Z,24.93
2022-11-09T23:56:10.883Z,23.73
2022-11-09T23:58:38.623Z,21.77
